sensor_id;sensor_type;location;lat;lon;timestamp;P1;durP1;ratioP1;P2;durP2;ratioP2
49978;SDS011;35869;50.990;6.962;2023-07-20T00:02:10;6.90;;;3.30;;
49978;SDS011;35869;50.990;6.962;2023-07-20T00:07:10;4.43;;;3.10;;
49978;SDS011;35869;50.990;6.962;2023-07-20T00:12:10;8.97;;;3.13;;
49978;SDS011;35869;50.990;6.962;2023-07-20T00:17:11;5.45;;;3.05;;
49978;SDS011;35869;50.990;6.962;2023-07-20T00:22:11;5.72;;;3.47;;
49978;SDS011;35869;50.990;6.962;2023-07-20T00:27:11;4.40;;;2.97;;
49978;SDS011;35869;50.990;6.962;2023-07-20T00:32:11;4.60;;;3.07;;
49978;SDS011;35869;50.990;6.962;2023-07-20T00:37:12;7.33;;;2.50;;
49978;SDS011;35869;50.990;6.962;2023-07-20T00:42:12;6.57;;;2.57;;
49978;SDS011;35869;50.990;6.962;2023-07-20T00:47:12;5.72;;;2.72;;
49978;SDS011;35869;50.990;6.962;2023-07-20T00:52:13;3.83;;;2.73;;
49978;SDS011;35869;50.990;6.962;2023-07-20T00:57:14;7.38;;;2.95;;
49978;SDS011;35869;50.990;6.962;2023-07-20T01:02:15;5.20;;;2.45;;
49978;SDS011;35869;50.990;6.962;2023-07-20T01:12:41;4.13;;;2.40;;
49978;SDS011;35869;50.990;6.962;2023-07-20T01:17:42;5.05;;;2.95;;
49978;SDS011;35869;50.990;6.962;2023-07-20T01:22:48;2.53;;;2.30;;
49978;SDS011;35869;50.990;6.962;2023-07-20T01:33:56;5.25;;;2.47;;
49978;SDS011;35869;50.990;6.962;2023-07-20T01:38:57;4.38;;;2.60;;
49978;SDS011;35869;50.990;6.962;2023-07-20T01:43:58;4.03;;;2.55;;
49978;SDS011;35869;50.990;6.962;2023-07-20T01:48:58;2.65;;;2.45;;
49978;SDS011;35869;50.990;6.962;2023-07-20T01:53:59;4.13;;;2.30;;
49978;SDS011;35869;50.990;6.962;2023-07-20T01:58:59;3.03;;;2.43;;
49978;SDS011;35869;50.990;6.962;2023-07-20T02:03:59;4.90;;;2.33;;
49978;SDS011;35869;50.990;6.962;2023-07-20T02:09:00;3.23;;;2.30;;
49978;SDS011;35869;50.990;6.962;2023-07-20T02:14:00;5.13;;;2.20;;
49978;SDS011;35869;50.990;6.962;2023-07-20T02:19:00;5.57;;;2.90;;
49978;SDS011;35869;50.990;6.962;2023-07-20T02:24:00;2.90;;;2.27;;
49978;SDS011;35869;50.990;6.962;2023-07-20T02:29:00;3.67;;;2.40;;
49978;SDS011;35869;50.990;6.962;2023-07-20T02:34:00;4.23;;;1.93;;
49978;SDS011;35869;50.990;6.962;2023-07-20T02:39:01;3.00;;;2.70;;
49978;SDS011;35869;50.990;6.962;2023-07-20T02:44:01;3.45;;;2.33;;
49978;SDS011;35869;50.990;6.962;2023-07-20T02:49:02;4.63;;;2.87;;
49978;SDS011;35869;50.990;6.962;2023-07-20T02:54:02;4.97;;;3.07;;
49978;SDS011;35869;50.990;6.962;2023-07-20T02:59:02;7.00;;;2.80;;
49978;SDS011;35869;50.990;6.962;2023-07-20T03:04:02;4.25;;;2.90;;
49978;SDS011;35869;50.990;6.962;2023-07-20T03:09:03;5.13;;;3.17;;
49978;SDS011;35869;50.990;6.962;2023-07-20T03:14:04;5.88;;;3.25;;
49978;SDS011;35869;50.990;6.962;2023-07-20T03:19:04;5.00;;;3.20;;
49978;SDS011;35869;50.990;6.962;2023-07-20T03:24:04;4.50;;;2.72;;
49978;SDS011;35869;50.990;6.962;2023-07-20T03:29:05;4.75;;;2.92;;
49978;SDS011;35869;50.990;6.962;2023-07-20T03:34:05;6.40;;;3.33;;
49978;SDS011;35869;50.990;6.962;2023-07-20T03:39:05;4.23;;;2.87;;
49978;SDS011;35869;50.990;6.962;2023-07-20T03:44:05;5.50;;;2.70;;
49978;SDS011;35869;50.990;6.962;2023-07-20T03:49:06;5.10;;;2.67;;
49978;SDS011;35869;50.990;6.962;2023-07-20T03:54:06;5.55;;;3.65;;
49978;SDS011;35869;50.990;6.962;2023-07-20T03:59:06;4.22;;;2.80;;
49978;SDS011;35869;50.990;6.962;2023-07-20T04:04:07;4.53;;;2.47;;
49978;SDS011;35869;50.990;6.962;2023-07-20T04:09:07;6.25;;;2.90;;
49978;SDS011;35869;50.990;6.962;2023-07-20T04:14:07;5.32;;;2.35;;
49978;SDS011;35869;50.990;6.962;2023-07-20T04:19:08;7.07;;;3.35;;
49978;SDS011;35869;50.990;6.962;2023-07-20T04:24:08;5.75;;;3.08;;
49978;SDS011;35869;50.990;6.962;2023-07-20T04:29:08;5.37;;;3.03;;
49978;SDS011;35869;50.990;6.962;2023-07-20T04:34:08;8.67;;;3.17;;
49978;SDS011;35869;50.990;6.962;2023-07-20T04:39:09;8.53;;;2.70;;
49978;SDS011;35869;50.990;6.962;2023-07-20T04:44:10;9.32;;;3.60;;
49978;SDS011;35869;50.990;6.962;2023-07-20T04:49:10;5.87;;;3.47;;
49978;SDS011;35869;50.990;6.962;2023-07-20T04:54:10;9.20;;;3.40;;
49978;SDS011;35869;50.990;6.962;2023-07-20T04:59:10;8.87;;;4.07;;
49978;SDS011;35869;50.990;6.962;2023-07-20T05:04:10;12.88;;;4.18;;
49978;SDS011;35869;50.990;6.962;2023-07-20T05:09:11;6.20;;;4.00;;
49978;SDS011;35869;50.990;6.962;2023-07-20T05:14:11;7.57;;;5.05;;
49978;SDS011;35869;50.990;6.962;2023-07-20T05:19:11;12.67;;;5.17;;
49978;SDS011;35869;50.990;6.962;2023-07-20T05:24:11;7.20;;;4.80;;
49978;SDS011;35869;50.990;6.962;2023-07-20T05:29:11;8.37;;;4.60;;
49978;SDS011;35869;50.990;6.962;2023-07-20T05:34:12;10.47;;;4.53;;
49978;SDS011;35869;50.990;6.962;2023-07-20T05:39:12;7.10;;;4.97;;
49978;SDS011;35869;50.990;6.962;2023-07-20T05:44:12;6.97;;;4.80;;
49978;SDS011;35869;50.990;6.962;2023-07-20T05:49:12;8.27;;;5.10;;
49978;SDS011;35869;50.990;6.962;2023-07-20T05:54:12;7.73;;;5.87;;
49978;SDS011;35869;50.990;6.962;2023-07-20T05:59:13;8.30;;;5.27;;
49978;SDS011;35869;50.990;6.962;2023-07-20T06:04:13;9.57;;;5.00;;
49978;SDS011;35869;50.990;6.962;2023-07-20T06:09:13;8.50;;;6.13;;
49978;SDS011;35869;50.990;6.962;2023-07-20T06:14:14;10.70;;;7.37;;
49978;SDS011;35869;50.990;6.962;2023-07-20T06:19:14;10.87;;;6.73;;
49978;SDS011;35869;50.990;6.962;2023-07-20T06:24:15;8.25;;;5.70;;
49978;SDS011;35869;50.990;6.962;2023-07-20T06:29:15;11.70;;;7.72;;
49978;SDS011;35869;50.990;6.962;2023-07-20T06:34:16;12.70;;;8.40;;
49978;SDS011;35869;50.990;6.962;2023-07-20T06:39:16;9.43;;;7.17;;
49978;SDS011;35869;50.990;6.962;2023-07-20T06:44:16;10.07;;;7.37;;
49978;SDS011;35869;50.990;6.962;2023-07-20T06:49:26;12.87;;;7.63;;
49978;SDS011;35869;50.990;6.962;2023-07-20T06:54:27;9.25;;;7.18;;
49978;SDS011;35869;50.990;6.962;2023-07-20T06:59:27;10.43;;;7.60;;
49978;SDS011;35869;50.990;6.962;2023-07-20T07:04:27;11.00;;;7.43;;
49978;SDS011;35869;50.990;6.962;2023-07-20T07:09:27;11.07;;;8.13;;
49978;SDS011;35869;50.990;6.962;2023-07-20T07:14:28;10.87;;;5.43;;
49978;SDS011;35869;50.990;6.962;2023-07-20T07:19:28;10.57;;;6.67;;
49978;SDS011;35869;50.990;6.962;2023-07-20T07:24:28;8.60;;;6.37;;
49978;SDS011;35869;50.990;6.962;2023-07-20T07:29:28;10.02;;;5.95;;
49978;SDS011;35869;50.990;6.962;2023-07-20T07:34:29;5.40;;;3.88;;
49978;SDS011;35869;50.990;6.962;2023-07-20T07:39:29;6.60;;;4.80;;
49978;SDS011;35869;50.990;6.962;2023-07-20T07:44:30;6.50;;;4.37;;
49978;SDS011;35869;50.990;6.962;2023-07-20T07:49:30;5.72;;;3.95;;
49978;SDS011;35869;50.990;6.962;2023-07-20T07:54:30;4.15;;;3.75;;
49978;SDS011;35869;50.990;6.962;2023-07-20T07:59:31;6.97;;;4.38;;
49978;SDS011;35869;50.990;6.962;2023-07-20T08:04:31;9.65;;;4.50;;
49978;SDS011;35869;50.990;6.962;2023-07-20T08:09:31;7.88;;;5.35;;
49978;SDS011;35869;50.990;6.962;2023-07-20T08:14:31;5.65;;;4.63;;
49978;SDS011;35869;50.990;6.962;2023-07-20T08:19:31;3.67;;;2.75;;
49978;SDS011;35869;50.990;6.962;2023-07-20T08:24:32;5.97;;;2.60;;
49978;SDS011;35869;50.990;6.962;2023-07-20T08:29:32;3.88;;;2.80;;
49978;SDS011;35869;50.990;6.962;2023-07-20T08:34:32;3.85;;;2.22;;
49978;SDS011;35869;50.990;6.962;2023-07-20T08:39:32;3.83;;;2.50;;
49978;SDS011;35869;50.990;6.962;2023-07-20T08:44:33;2.70;;;2.25;;
49978;SDS011;35869;50.990;6.962;2023-07-20T08:49:33;2.13;;;1.92;;
49978;SDS011;35869;50.990;6.962;2023-07-20T08:54:35;1.65;;;1.55;;
49978;SDS011;35869;50.990;6.962;2023-07-20T08:59:36;4.03;;;1.48;;
49978;SDS011;35869;50.990;6.962;2023-07-20T09:04:38;1.60;;;1.50;;
49978;SDS011;35869;50.990;6.962;2023-07-20T09:09:41;2.90;;;1.27;;
49978;SDS011;35869;50.990;6.962;2023-07-20T09:14:44;1.80;;;1.55;;
49978;SDS011;35869;50.990;6.962;2023-07-20T09:19:48;2.22;;;1.30;;
49978;SDS011;35869;50.990;6.962;2023-07-20T09:24:48;0.90;;;0.85;;
49978;SDS011;35869;50.990;6.962;2023-07-20T09:29:49;1.60;;;1.15;;
49978;SDS011;35869;50.990;6.962;2023-07-20T09:34:50;2.95;;;1.73;;
49978;SDS011;35869;50.990;6.962;2023-07-20T09:39:51;2.90;;;1.92;;
49978;SDS011;35869;50.990;6.962;2023-07-20T09:44:52;2.92;;;2.03;;
49978;SDS011;35869;50.990;6.962;2023-07-20T09:49:59;5.22;;;1.55;;
49978;SDS011;35869;50.990;6.962;2023-07-20T09:54:59;1.90;;;1.40;;
49978;SDS011;35869;50.990;6.962;2023-07-20T10:00:02;2.58;;;1.30;;
49978;SDS011;35869;50.990;6.962;2023-07-20T10:05:04;3.08;;;1.33;;
49978;SDS011;35869;50.990;6.962;2023-07-20T10:10:04;4.00;;;1.48;;
49978;SDS011;35869;50.990;6.962;2023-07-20T10:15:10;1.30;;;1.20;;
49978;SDS011;35869;50.990;6.962;2023-07-20T10:20:14;1.73;;;1.35;;
49978;SDS011;35869;50.990;6.962;2023-07-20T10:25:15;2.35;;;1.05;;
49978;SDS011;35869;50.990;6.962;2023-07-20T10:30:18;1.70;;;1.25;;
49978;SDS011;35869;50.990;6.962;2023-07-20T10:35:19;2.70;;;0.90;;
49978;SDS011;35869;50.990;6.962;2023-07-20T10:56:14;1.00;;;0.85;;
49978;SDS011;35869;50.990;6.962;2023-07-20T11:01:19;1.00;;;0.90;;
49978;SDS011;35869;50.990;6.962;2023-07-20T11:11:32;3.85;;;0.73;;
49978;SDS011;35869;50.990;6.962;2023-07-20T11:21:35;0.95;;;0.63;;
49978;SDS011;35869;50.990;6.962;2023-07-20T11:26:41;1.95;;;0.63;;
49978;SDS011;35869;50.990;6.962;2023-07-20T11:31:43;1.15;;;0.50;;
49978;SDS011;35869;50.990;6.962;2023-07-20T11:36:44;2.15;;;1.02;;
49978;SDS011;35869;50.990;6.962;2023-07-20T11:41:51;0.80;;;0.80;;
49978;SDS011;35869;50.990;6.962;2023-07-20T11:46:59;0.65;;;0.60;;
49978;SDS011;35869;50.990;6.962;2023-07-20T11:52:08;2.20;;;0.55;;
49978;SDS011;35869;50.990;6.962;2023-07-20T11:57:19;1.15;;;0.57;;
49978;SDS011;35869;50.990;6.962;2023-07-20T12:02:19;1.10;;;0.80;;
49978;SDS011;35869;50.990;6.962;2023-07-20T12:07:20;1.52;;;0.73;;
49978;SDS011;35869;50.990;6.962;2023-07-20T12:12:21;1.48;;;0.75;;
49978;SDS011;35869;50.990;6.962;2023-07-20T12:17:21;2.78;;;0.70;;
49978;SDS011;35869;50.990;6.962;2023-07-20T12:22:21;3.03;;;1.00;;
49978;SDS011;35869;50.990;6.962;2023-07-20T12:27:21;1.80;;;0.63;;
49978;SDS011;35869;50.990;6.962;2023-07-20T12:32:22;1.95;;;0.80;;
49978;SDS011;35869;50.990;6.962;2023-07-20T12:37:22;0.88;;;0.70;;
49978;SDS011;35869;50.990;6.962;2023-07-20T12:42:22;1.60;;;0.30;;
49978;SDS011;35869;50.990;6.962;2023-07-20T12:47:22;1.30;;;0.52;;
49978;SDS011;35869;50.990;6.962;2023-07-20T12:52:23;1.17;;;0.70;;
49978;SDS011;35869;50.990;6.962;2023-07-20T12:57:23;0.90;;;0.60;;
49978;SDS011;35869;50.990;6.962;2023-07-20T13:02:23;2.22;;;0.98;;
49978;SDS011;35869;50.990;6.962;2023-07-20T13:07:34;1.95;;;0.77;;
49978;SDS011;35869;50.990;6.962;2023-07-20T13:12:36;3.28;;;0.60;;
49978;SDS011;35869;50.990;6.962;2023-07-20T13:17:38;1.23;;;0.80;;
49978;SDS011;35869;50.990;6.962;2023-07-20T13:22:39;4.03;;;0.80;;
49978;SDS011;35869;50.990;6.962;2023-07-20T13:27:39;2.40;;;0.93;;
49978;SDS011;35869;50.990;6.962;2023-07-20T13:32:40;5.75;;;1.20;;
49978;SDS011;35869;50.990;6.962;2023-07-20T13:37:41;1.00;;;0.90;;
49978;SDS011;35869;50.990;6.962;2023-07-20T13:42:41;4.03;;;0.70;;
49978;SDS011;35869;50.990;6.962;2023-07-20T13:47:41;6.22;;;1.80;;
49978;SDS011;35869;50.990;6.962;2023-07-20T13:52:41;4.40;;;1.08;;
49978;SDS011;35869;50.990;6.962;2023-07-20T13:57:41;1.75;;;1.00;;
49978;SDS011;35869;50.990;6.962;2023-07-20T14:02:42;1.30;;;0.80;;
49978;SDS011;35869;50.990;6.962;2023-07-20T14:07:42;2.70;;;0.85;;
49978;SDS011;35869;50.990;6.962;2023-07-20T14:12:42;1.75;;;0.82;;
49978;SDS011;35869;50.990;6.962;2023-07-20T14:17:42;2.05;;;1.45;;
49978;SDS011;35869;50.990;6.962;2023-07-20T14:22:42;12.18;;;1.17;;
49978;SDS011;35869;50.990;6.962;2023-07-20T14:27:43;1.83;;;1.00;;
49978;SDS011;35869;50.990;6.962;2023-07-20T14:32:43;1.48;;;0.70;;
49978;SDS011;35869;50.990;6.962;2023-07-20T14:37:43;2.88;;;1.00;;
49978;SDS011;35869;50.990;6.962;2023-07-20T14:42:43;1.95;;;0.75;;
49978;SDS011;35869;50.990;6.962;2023-07-20T14:47:44;0.77;;;0.52;;
49978;SDS011;35869;50.990;6.962;2023-07-20T14:52:44;3.20;;;1.02;;
49978;SDS011;35869;50.990;6.962;2023-07-20T14:57:45;4.00;;;1.00;;
49978;SDS011;35869;50.990;6.962;2023-07-20T15:02:45;2.33;;;1.02;;
49978;SDS011;35869;50.990;6.962;2023-07-20T15:07:45;3.90;;;0.90;;
49978;SDS011;35869;50.990;6.962;2023-07-20T15:12:45;1.75;;;0.73;;
49978;SDS011;35869;50.990;6.962;2023-07-20T15:17:46;0.73;;;0.60;;
49978;SDS011;35869;50.990;6.962;2023-07-20T15:22:46;2.17;;;0.70;;
49978;SDS011;35869;50.990;6.962;2023-07-20T15:27:46;1.05;;;0.95;;
49978;SDS011;35869;50.990;6.962;2023-07-20T15:32:46;1.67;;;0.75;;
49978;SDS011;35869;50.990;6.962;2023-07-20T15:37:46;1.75;;;0.80;;
49978;SDS011;35869;50.990;6.962;2023-07-20T15:42:47;1.73;;;0.60;;
49978;SDS011;35869;50.990;6.962;2023-07-20T15:47:48;1.92;;;0.60;;
49978;SDS011;35869;50.990;6.962;2023-07-20T15:52:49;3.28;;;0.63;;
49978;SDS011;35869;50.990;6.962;2023-07-20T15:57:49;2.42;;;0.70;;
49978;SDS011;35869;50.990;6.962;2023-07-20T16:02:49;1.38;;;0.80;;
49978;SDS011;35869;50.990;6.962;2023-07-20T16:07:49;1.60;;;1.08;;
49978;SDS011;35869;50.990;6.962;2023-07-20T16:12:49;0.65;;;0.47;;
49978;SDS011;35869;50.990;6.962;2023-07-20T16:17:50;3.05;;;1.10;;
49978;SDS011;35869;50.990;6.962;2023-07-20T16:22:50;4.03;;;1.08;;
49978;SDS011;35869;50.990;6.962;2023-07-20T16:27:50;2.67;;;0.70;;
49978;SDS011;35869;50.990;6.962;2023-07-20T16:32:50;1.67;;;0.90;;
49978;SDS011;35869;50.990;6.962;2023-07-20T16:37:50;1.80;;;0.77;;
49978;SDS011;35869;50.990;6.962;2023-07-20T16:42:51;2.15;;;0.70;;
49978;SDS011;35869;50.990;6.962;2023-07-20T16:47:51;1.70;;;0.68;;
49978;SDS011;35869;50.990;6.962;2023-07-20T16:52:51;1.65;;;0.82;;
49978;SDS011;35869;50.990;6.962;2023-07-20T16:57:51;1.17;;;0.60;;
49978;SDS011;35869;50.990;6.962;2023-07-20T17:02:52;1.45;;;0.80;;
49978;SDS011;35869;50.990;6.962;2023-07-20T17:07:52;1.27;;;0.93;;
49978;SDS011;35869;50.990;6.962;2023-07-20T17:12:52;0.77;;;0.70;;
49978;SDS011;35869;50.990;6.962;2023-07-20T17:17:52;1.10;;;0.90;;
49978;SDS011;35869;50.990;6.962;2023-07-20T17:22:52;1.20;;;0.57;;
49978;SDS011;35869;50.990;6.962;2023-07-20T17:27:53;0.80;;;0.50;;
49978;SDS011;35869;50.990;6.962;2023-07-20T17:32:54;5.88;;;1.15;;
49978;SDS011;35869;50.990;6.962;2023-07-20T17:37:54;3.40;;;0.50;;
49978;SDS011;35869;50.990;6.962;2023-07-20T17:42:54;1.80;;;0.90;;
49978;SDS011;35869;50.990;6.962;2023-07-20T17:47:54;1.55;;;0.70;;
49978;SDS011;35869;50.990;6.962;2023-07-20T17:52:55;1.15;;;0.77;;
49978;SDS011;35869;50.990;6.962;2023-07-20T17:57:55;0.95;;;0.88;;
49978;SDS011;35869;50.990;6.962;2023-07-20T18:02:55;1.00;;;0.70;;
49978;SDS011;35869;50.990;6.962;2023-07-20T18:07:56;3.47;;;1.17;;
49978;SDS011;35869;50.990;6.962;2023-07-20T18:12:56;2.88;;;0.77;;
49978;SDS011;35869;50.990;6.962;2023-07-20T18:17:56;1.70;;;0.95;;
49978;SDS011;35869;50.990;6.962;2023-07-20T18:22:56;2.05;;;1.02;;
49978;SDS011;35869;50.990;6.962;2023-07-20T18:27:56;1.58;;;0.50;;
49978;SDS011;35869;50.990;6.962;2023-07-20T18:32:57;1.02;;;0.82;;
49978;SDS011;35869;50.990;6.962;2023-07-20T18:37:57;0.70;;;0.70;;
49978;SDS011;35869;50.990;6.962;2023-07-20T18:42:57;1.08;;;0.70;;
49978;SDS011;35869;50.990;6.962;2023-07-20T18:47:57;1.92;;;1.00;;
49978;SDS011;35869;50.990;6.962;2023-07-20T18:52:57;2.03;;;0.80;;
49978;SDS011;35869;50.990;6.962;2023-07-20T18:57:58;3.10;;;0.85;;
49978;SDS011;35869;50.990;6.962;2023-07-20T19:02:58;2.43;;;0.77;;
49978;SDS011;35869;50.990;6.962;2023-07-20T19:07:58;2.53;;;1.10;;
49978;SDS011;35869;50.990;6.962;2023-07-20T19:12:58;1.00;;;0.70;;
49978;SDS011;35869;50.990;6.962;2023-07-20T19:17:58;3.03;;;1.10;;
49978;SDS011;35869;50.990;6.962;2023-07-20T19:22:59;2.38;;;0.93;;
49978;SDS011;35869;50.990;6.962;2023-07-20T19:27:59;2.60;;;1.40;;
49978;SDS011;35869;50.990;6.962;2023-07-20T19:32:59;3.38;;;1.20;;
49978;SDS011;35869;50.990;6.962;2023-07-20T19:37:59;1.88;;;0.90;;
49978;SDS011;35869;50.990;6.962;2023-07-20T19:43:00;1.02;;;0.88;;
49978;SDS011;35869;50.990;6.962;2023-07-20T19:48:00;2.07;;;0.90;;
49978;SDS011;35869;50.990;6.962;2023-07-20T19:53:01;1.67;;;0.70;;
49978;SDS011;35869;50.990;6.962;2023-07-20T19:58:01;1.70;;;1.10;;
49978;SDS011;35869;50.990;6.962;2023-07-20T20:03:01;1.10;;;0.73;;
49978;SDS011;35869;50.990;6.962;2023-07-20T20:08:02;2.17;;;1.10;;
49978;SDS011;35869;50.990;6.962;2023-07-20T20:13:06;1.42;;;1.08;;
49978;SDS011;35869;50.990;6.962;2023-07-20T20:18:06;1.48;;;0.90;;
49978;SDS011;35869;50.990;6.962;2023-07-20T20:23:19;2.35;;;1.15;;
49978;SDS011;35869;50.990;6.962;2023-07-20T20:28:19;1.98;;;0.95;;
49978;SDS011;35869;50.990;6.962;2023-07-20T20:33:20;2.08;;;1.02;;
49978;SDS011;35869;50.990;6.962;2023-07-20T20:38:20;2.42;;;1.25;;
49978;SDS011;35869;50.990;6.962;2023-07-20T20:43:22;3.38;;;1.20;;
49978;SDS011;35869;50.990;6.962;2023-07-20T20:48:22;1.73;;;0.93;;
49978;SDS011;35869;50.990;6.962;2023-07-20T20:53:22;1.25;;;1.10;;
49978;SDS011;35869;50.990;6.962;2023-07-20T20:58:23;2.60;;;1.08;;
49978;SDS011;35869;50.990;6.962;2023-07-20T21:03:23;2.15;;;1.17;;
49978;SDS011;35869;50.990;6.962;2023-07-20T21:08:23;4.80;;;1.80;;
49978;SDS011;35869;50.990;6.962;2023-07-20T21:13:23;4.50;;;2.35;;
49978;SDS011;35869;50.990;6.962;2023-07-20T21:18:24;3.88;;;3.10;;
49978;SDS011;35869;50.990;6.962;2023-07-20T21:23:24;4.53;;;3.00;;
49978;SDS011;35869;50.990;6.962;2023-07-20T21:28:24;4.03;;;2.88;;
49978;SDS011;35869;50.990;6.962;2023-07-20T21:33:24;7.55;;;3.67;;
49978;SDS011;35869;50.990;6.962;2023-07-20T21:38:24;4.85;;;3.63;;
49978;SDS011;35869;50.990;6.962;2023-07-20T21:43:25;4.82;;;4.22;;
49978;SDS011;35869;50.990;6.962;2023-07-20T21:48:25;4.47;;;4.07;;
49978;SDS011;35869;50.990;6.962;2023-07-20T21:53:25;6.13;;;5.53;;
49978;SDS011;35869;50.990;6.962;2023-07-20T21:58:25;4.97;;;4.57;;
49978;SDS011;35869;50.990;6.962;2023-07-20T22:03:26;5.68;;;5.18;;
49978;SDS011;35869;50.990;6.962;2023-07-20T22:08:26;6.72;;;5.68;;
49978;SDS011;35869;50.990;6.962;2023-07-20T22:13:26;5.97;;;5.43;;
49978;SDS011;35869;50.990;6.962;2023-07-20T22:18:26;8.73;;;5.53;;
49978;SDS011;35869;50.990;6.962;2023-07-20T22:23:26;6.60;;;5.93;;
49978;SDS011;35869;50.990;6.962;2023-07-20T22:28:27;7.87;;;7.17;;
49978;SDS011;35869;50.990;6.962;2023-07-20T22:33:27;9.23;;;7.90;;
49978;SDS011;35869;50.990;6.962;2023-07-20T22:38:27;10.02;;;7.60;;
49978;SDS011;35869;50.990;6.962;2023-07-20T22:43:27;9.00;;;8.10;;
49978;SDS011;35869;50.990;6.962;2023-07-20T22:48:27;7.43;;;6.73;;
49978;SDS011;35869;50.990;6.962;2023-07-20T22:53:28;6.17;;;5.57;;
49978;SDS011;35869;50.990;6.962;2023-07-20T22:58:28;6.70;;;6.00;;
49978;SDS011;35869;50.990;6.962;2023-07-20T23:03:28;6.65;;;6.05;;
49978;SDS011;35869;50.990;6.962;2023-07-20T23:08:29;7.97;;;6.65;;
49978;SDS011;35869;50.990;6.962;2023-07-20T23:13:29;6.65;;;6.05;;
49978;SDS011;35869;50.990;6.962;2023-07-20T23:18:29;7.90;;;6.43;;
49978;SDS011;35869;50.990;6.962;2023-07-20T23:23:30;8.10;;;7.27;;
49978;SDS011;35869;50.990;6.962;2023-07-20T23:28:30;7.20;;;6.47;;
49978;SDS011;35869;50.990;6.962;2023-07-20T23:33:30;8.27;;;7.47;;
49978;SDS011;35869;50.990;6.962;2023-07-20T23:38:30;8.33;;;7.53;;
49978;SDS011;35869;50.990;6.962;2023-07-20T23:43:30;8.73;;;6.97;;
49978;SDS011;35869;50.990;6.962;2023-07-20T23:48:31;8.07;;;6.40;;
49978;SDS011;35869;50.990;6.962;2023-07-20T23:53:32;7.43;;;6.72;;
49978;SDS011;35869;50.990;6.962;2023-07-20T23:58:32;7.37;;;6.67;;
